Time;durP1;ratioP1;P1;durP2;ratioP2;P2;SDS_P1;SDS_P2;PMS_P1;PMS_P2;Temp;Humidity;BMP_temperature;BMP_pressure;BME280_temperature;BME280_humidity;BME280_pressure;Samples;Min_cycle;Max_cycle;Signal;HPM_P1;HPM_P2
2022/04/15 00:01:12;;;;;;;9.75;5.72;;;;;;;9.07;68.24;101102.22;5009854;28;20538;-76
2022/04/15 00:03:39;;;;;;;10.15;5.95;;;;;;;8.88;69.05;101102.91;5011839;28;20544;-76
2022/04/15 00:06:08;;;;;;;10.43;5.80;;;;;;;8.85;68.94;101100.16;4994050;28;20034;-75
2022/04/15 00:08:34;;;;;;;10.80;5.55;;;;;;;8.99;68.67;101097.44;5011898;28;20030;-76
2022/04/15 00:11:00;;;;;;;9.00;6.10;;;;;;;8.97;68.46;101093.91;5011346;28;20034;-76
2022/04/15 00:13:29;;;;;;;10.25;6.43;;;;;;;8.49;70.48;101107.63;5011882;28;20021;-75
2022/04/15 00:15:55;;;;;;;10.73;5.65;;;;;;;8.14;71.55;101075.66;5010777;28;20112;-74
2022/04/15 00:18:21;;;;;;;11.40;6.82;;;;;;;8.33;72.05;101102.41;5011633;28;20033;-74
2022/04/15 00:20:47;;;;;;;14.18;6.43;;;;;;;8.15;72.35;101095.44;5011465;28;20050;-74
2022/04/15 00:23:12;;;;;;;14.13;7.72;;;;;;;8.22;72.67;101110.41;5011347;28;20033;-75
2022/04/15 00:25:38;;;;;;;11.52;6.10;;;;;;;8.21;72.92;101111.22;5009937;28;20033;-74
2022/04/15 00:28:04;;;;;;;9.98;6.45;;;;;;;8.30;72.90;101108.28;5011514;28;20060;-74
2022/04/15 00:30:29;;;;;;;9.02;6.28;;;;;;;7.90;73.86;101091.44;5011448;28;20109;-74
2022/04/15 00:32:55;;;;;;;10.85;5.97;;;;;;;8.00;74.20;101094.53;5009942;28;20405;-74
2022/04/15 00:35:20;;;;;;;8.75;5.60;;;;;;;7.74;75.20;101093.94;5011143;28;20037;-74
2022/04/15 00:37:47;;;;;;;9.05;5.85;;;;;;;7.84;75.19;101085.94;5011400;28;20073;-76
2022/04/15 00:40:13;;;;;;;9.15;5.75;;;;;;;8.15;74.25;101103.16;5010049;28;20037;-74
2022/04/15 00:42:38;;;;;;;8.40;6.07;;;;;;;8.25;73.16;101079.72;5009419;28;20071;-76
2022/04/15 00:45:04;;;;;;;10.73;6.47;;;;;;;8.59;72.09;101109.03;5010710;28;20037;-77
2022/04/15 00:47:55;;;;;;;6.93;5.15;;;;;;;8.69;71.39;101102.72;5010625;28;20025;-74
2022/04/15 00:50:32;;;;;;;10.45;5.85;;;;;;;8.51;71.06;101071.69;5009944;28;20033;-76
2022/04/15 00:53:00;;;;;;;8.40;5.80;;;;;;;8.50;71.13;101090.50;5006426;28;20038;-76
2022/04/15 00:55:27;;;;;;;8.57;5.57;;;;;;;8.34;71.46;101083.59;5007919;28;20056;-77
2022/04/15 00:57:56;;;;;;;13.15;6.43;;;;;;;8.39;71.95;101098.47;5007722;28;20052;-78
2022/04/15 01:00:23;;;;;;;8.35;5.82;;;;;;;8.37;71.64;101083.75;5007990;28;20157;-72
2022/04/15 01:02:49;;;;;;;11.63;6.10;;;;;;;8.28;72.44;101117.56;5007900;28;20125;-76
2022/04/15 01:05:15;;;;;;;11.80;6.07;;;;;;;8.13;73.00;101117.59;5007569;28;20117;-74
2022/04/15 01:07:49;;;;;;;12.30;6.00;;;;;;;7.85;74.42;101123.72;4991309;28;20029;-76
2022/04/15 01:10:15;;;;;;;8.57;6.28;;;;;;;7.73;75.40;101128.13;5007737;28;20181;-77
2022/04/15 01:12:44;;;;;;;11.70;6.20;;;;;;;7.49;76.25;101115.59;5007768;28;20536;-76
2022/04/15 01:15:13;;;;;;;6.75;5.55;;;;;;;7.53;76.33;101115.00;5007634;28;20112;-73
2022/04/15 01:17:39;;;;;;;8.32;6.28;;;;;;;7.54;76.47;101118.44;4990234;28;20083;-74
2022/04/15 01:20:07;;;;;;;12.13;7.40;;;;;;;7.60;76.00;101108.53;5007605;28;20048;-74
2022/04/15 01:23:06;;;;;;;9.18;7.50;;;;;;;7.72;76.10;101106.66;5007515;28;20065;-74
2022/04/15 01:25:32;;;;;;;11.00;6.57;;;;;;;7.57;75.82;101090.38;4986014;28;20042;-74
2022/04/15 01:27:58;;;;;;;7.68;6.10;;;;;;;7.54;75.62;101100.44;4987581;28;20046;-73
2022/04/15 01:30:24;;;;;;;9.98;6.07;;;;;;;7.13;76.89;101098.06;4971570;28;20042;-75
2022/04/15 01:32:50;;;;;;;7.00;5.32;;;;;;;7.11;77.61;101094.50;4987666;28;20471;-78
2022/04/15 01:35:17;;;;;;;6.88;5.40;;;;;;;7.38;76.67;101103.81;5003931;28;20113;-74
2022/04/15 01:37:44;;;;;;;8.57;5.68;;;;;;;7.63;75.84;101106.16;4987862;28;20041;-75
2022/04/15 01:40:11;;;;;;;10.93;5.80;;;;;;;7.57;74.65;101095.50;4988199;28;20049;-74
2022/04/15 01:42:38;;;;;;;8.25;5.38;;;;;;;7.62;74.46;101094.09;4971315;28;20038;-74
2022/04/15 01:45:04;;;;;;;11.07;5.85;;;;;;;7.78;74.24;101094.19;4987868;28;20085;-74
2022/04/15 01:47:30;;;;;;;7.97;5.80;;;;;;;7.55;73.76;101055.97;4987724;28;20575;-74
2022/04/15 01:49:56;;;;;;;8.10;5.85;;;;;;;7.83;73.06;101099.59;4987946;28;20074;-75
2022/04/15 01:52:22;;;;;;;9.23;5.80;;;;;;;7.92;72.44;101078.69;4971496;28;20038;-75
2022/04/15 01:54:47;;;;;;;9.20;5.80;;;;;;;7.91;72.46;101077.81;5003807;28;20030;-74
2022/04/15 01:57:14;;;;;;;8.57;5.80;;;;;;;7.94;72.23;101082.22;4986890;28;20509;-75
2022/04/15 01:59:40;;;;;;;9.40;5.97;;;;;;;7.96;72.18;101084.88;4987718;28;20038;-75
2022/04/15 02:02:06;;;;;;;12.60;6.05;;;;;;;7.97;71.89;101072.09;4997951;28;20042;-75
2022/04/15 02:04:32;;;;;;;10.00;6.07;;;;;;;8.02;71.58;101059.53;5009364;28;20022;-76
2022/04/15 02:06:58;;;;;;;9.15;5.90;;;;;;;8.00;71.28;101055.97;5024760;28;20083;-75
2022/04/15 02:09:23;;;;;;;8.50;5.97;;;;;;;8.19;71.37;101063.94;5010664;28;20033;-76
2022/04/15 02:11:49;;;;;;;8.63;5.90;;;;;;;8.03;70.33;101025.31;5011864;28;20037;-75
2022/04/15 02:14:17;;;;;;;8.23;5.93;;;;;;;8.33;70.10;101069.84;5008562;28;20500;-75
2022/04/15 02:16:42;;;;;;;10.30;5.78;;;;;;;8.29;69.86;101075.63;5012770;28;20121;-75
2022/04/15 02:19:08;;;;;;;11.70;6.00;;;;;;;8.29;70.28;101083.34;5014368;28;20092;-75
2022/04/15 02:21:34;;;;;;;8.75;5.53;;;;;;;8.18;70.08;101072.44;5009376;28;20029;-75
2022/04/15 02:23:59;;;;;;;9.48;5.85;;;;;;;7.93;71.42;101072.75;5009360;28;20034;-74
2022/04/15 02:26:25;;;;;;;11.98;6.25;;;;;;;7.63;71.79;101018.78;5008910;28;20057;-75
2022/04/15 02:28:51;;;;;;;9.45;5.75;;;;;;;7.84;71.24;101052.53;5012783;28;20057;-75
2022/04/15 02:31:16;;;;;;;13.15;5.93;;;;;;;7.99;70.72;101051.63;5028395;28;20112;-76
2022/04/15 02:33:42;;;;;;;13.10;5.88;;;;;;;8.06;69.82;101054.66;5011839;28;20414;-76
2022/04/15 02:36:08;;;;;;;12.85;5.75;;;;;;;7.97;69.28;101014.66;5013253;28;20032;-75
2022/04/15 02:38:33;;;;;;;22.63;7.38;;;;;;;8.03;68.84;101018.47;5013123;28;20463;-75
2022/04/15 02:40:59;;;;;;;17.25;7.32;;;;;;;8.10;69.20;101040.28;5012367;28;20053;-76
2022/04/15 02:43:31;;;;;;;10.63;7.18;;;;;;;8.07;69.53;101048.72;5028040;28;20026;-74
2022/04/15 02:46:01;;;;;;;12.90;7.05;;;;;;;8.07;69.21;101047.81;5012799;28;20022;-74
2022/04/15 02:48:27;;;;;;;12.90;7.65;;;;;;;8.07;69.26;101047.81;5012810;28;20105;-74
2022/04/15 02:50:53;;;;;;;10.43;7.25;;;;;;;8.05;68.89;101042.59;5012863;28;20112;-74
2022/04/15 02:53:19;;;;;;;12.10;7.25;;;;;;;8.12;69.01;101051.50;5012466;28;20084;-75
2022/04/15 02:55:45;;;;;;;16.58;7.47;;;;;;;8.12;69.41;101055.78;5012339;28;20496;-75
2022/04/15 02:58:10;;;;;;;21.27;8.00;;;;;;;8.16;69.60;101057.72;5013093;28;20141;-75
2022/04/15 03:00:36;;;;;;;9.55;6.70;;;;;;;8.15;69.26;101058.53;5012916;28;20029;-75
2022/04/15 03:03:01;;;;;;;14.75;8.00;;;;;;;8.03;69.17;101051.00;5013141;28;20099;-74
2022/04/15 03:05:27;;;;;;;18.83;7.60;;;;;;;7.94;69.34;101046.25;5012289;28;20069;-76
2022/04/15 03:07:52;;;;;;;9.68;7.13;;;;;;;8.03;69.48;101069.00;5012352;28;20026;-74
2022/04/15 03:10:18;;;;;;;12.13;7.32;;;;;;;7.85;69.36;101059.44;5012887;28;20157;-74
2022/04/15 03:12:43;;;;;;;12.52;6.65;;;;;;;7.61;70.45;101067.53;5023830;28;20029;-73
2022/04/15 03:15:09;;;;;;;9.57;7.05;;;;;;;7.34;71.49;101063.31;5011902;28;20065;-73
2022/04/15 03:17:35;;;;;;;13.13;7.88;;;;;;;6.85;73.80;101063.78;5012198;28;20485;-74
2022/04/15 03:20:02;;;;;;;20.17;16.35;;;;;;;6.87;73.99;101065.66;5013226;28;20120;-75
2022/04/15 03:22:34;;;;;;;14.30;8.80;;;;;;;6.22;77.16;101073.53;5032644;28;20035;-76
2022/04/15 03:24:59;;;;;;;15.57;12.15;;;;;;;6.28;77.29;101076.50;5025319;28;20037;-76
2022/04/15 03:27:25;;;;;;;23.90;14.32;;;;;;;6.19;76.96;101047.72;5011091;28;20030;-76
2022/04/15 03:29:50;;;;;;;16.52;10.20;;;;;;;6.17;76.81;101055.31;5012776;28;20033;-76
2022/04/15 03:32:15;;;;;;;14.02;7.45;;;;;;;6.26;77.60;101096.94;5012462;28;20022;-76
2022/04/15 03:34:41;;;;;;;8.82;7.15;;;;;;;6.07;78.78;101078.56;5012333;28;20064;-76
2022/04/15 03:37:06;;;;;;;13.40;7.32;;;;;;;5.95;79.91;101074.38;5012312;28;20034;-77
2022/04/15 03:39:32;;;;;;;12.18;7.25;;;;;;;6.17;79.20;101083.53;5012062;28;20072;-76
2022/04/15 03:41:57;;;;;;;12.55;6.97;;;;;;;6.32;78.83;101081.94;5011224;28;20121;-75
2022/04/15 03:44:23;;;;;;;19.65;7.35;;;;;;;6.36;78.31;101089.84;5012478;28;20083;-75
2022/04/15 03:46:49;;;;;;;12.80;7.63;;;;;;;6.28;78.79;101079.97;4994760;28;20046;-76
2022/04/15 03:49:14;;;;;;;15.27;7.90;;;;;;;6.01;79.24;101026.91;5012281;28;20089;-76
2022/04/15 03:51:39;;;;;;;15.40;7.78;;;;;;;6.31;79.15;101069.88;5011399;28;20503;-76
2022/04/15 03:54:05;;;;;;;16.80;8.00;;;;;;;6.48;78.26;101078.66;5011126;28;20101;-78
2022/04/15 03:56:30;;;;;;;24.60;7.78;;;;;;;6.62;76.75;101076.97;5011318;28;20092;-78
2022/04/15 03:58:56;;;;;;;19.08;7.55;;;;;;;6.87;74.75;101085.31;5011527;28;20088;-77
2022/04/15 04:01:23;;;;;;;15.63;7.78;;;;;;;7.06;73.74;101079.63;5011697;28;20489;-77
2022/04/15 04:03:49;;;;;;;17.23;7.70;;;;;;;7.10;73.29;101077.34;5027384;28;20037;-76
2022/04/15 04:06:14;;;;;;;13.75;7.47;;;;;;;7.16;72.56;101088.78;5013676;28;20032;-75
2022/04/15 04:08:39;;;;;;;19.00;7.07;;;;;;;7.18;72.29;101085.50;5031193;28;20055;-76
2022/04/15 04:11:05;;;;;;;15.50;8.10;;;;;;;7.24;72.10;101082.41;5031549;28;20035;-74
2022/04/15 04:13:30;;;;;;;12.18;7.35;;;;;;;7.23;72.55;101076.41;5013726;28;20384;-76
2022/04/15 04:15:56;;;;;;;12.15;7.30;;;;;;;7.19;72.52;101065.84;5031255;28;20473;-77
2022/04/15 04:18:21;;;;;;;12.68;7.82;;;;;;;7.00;72.93;101025.34;5031095;28;20029;-77
2022/04/15 04:20:48;;;;;;;17.33;7.85;;;;;;;7.24;75.53;101067.00;5031077;28;20033;-77
2022/04/15 04:23:14;;;;;;;16.83;8.13;;;;;;;7.19;80.81;101089.84;5031161;28;20096;-79
2022/04/15 04:25:39;;;;;;;18.38;8.45;;;;;;;6.94;86.12;101079.75;5031412;28;20750;-77
2022/04/15 04:28:05;;;;;;;18.42;8.45;;;;;;;6.94;88.19;101066.91;5029944;28;20029;-76
2022/04/15 04:30:30;;;;;;;26.95;8.20;;;;;;;7.01;88.17;101039.94;5031330;28;20472;-76
2022/04/15 04:32:58;;;;;;;21.67;9.13;;;;;;;7.25;85.54;101072.25;5031174;28;20033;-76
2022/04/15 04:35:23;;;;;;;15.77;8.18;;;;;;;7.19;86.26;101071.88;5013313;28;20065;-76
2022/04/15 04:37:49;;;;;;;18.63;8.63;;;;;;;7.08;86.32;101078.03;5030684;28;20481;-75
2022/04/15 04:40:15;;;;;;;13.55;7.88;;;;;;;7.18;87.19;101071.75;5013449;28;20435;-75
2022/04/15 04:42:41;;;;;;;19.75;8.13;;;;;;;7.35;86.90;101075.34;5008586;28;20627;-76
2022/04/15 04:45:07;;;;;;;23.75;8.43;;;;;;;7.47;86.59;101068.38;5009001;28;20064;-75
2022/04/15 04:47:33;;;;;;;20.95;8.93;;;;;;;7.36;84.66;101046.31;5008862;28;20588;-76
2022/04/15 04:50:01;;;;;;;17.42;8.18;;;;;;;7.59;81.00;101069.09;5008483;28;20121;-75
2022/04/15 04:52:26;;;;;;;15.13;7.72;;;;;;;7.25;78.61;101046.56;5007656;28;20081;-75
2022/04/15 04:54:52;;;;;;;14.07;8.18;;;;;;;7.60;81.56;101095.66;5008608;28;20491;-75
2022/04/15 04:57:17;;;;;;;15.30;8.45;;;;;;;7.62;79.09;101081.25;4992003;28;20061;-73
2022/04/15 04:59:43;;;;;;;17.08;9.48;;;;;;;7.73;77.79;101084.44;5008629;28;20046;-75
2022/04/15 05:02:10;;;;;;;14.30;8.27;;;;;;;7.55;77.84;101104.78;4992132;28;20513;-79
2022/04/15 05:04:36;;;;;;;12.52;8.60;;;;;;;7.58;77.92;101100.72;5008574;28;20037;-75
2022/04/15 05:07:03;;;;;;;17.85;8.32;;;;;;;7.63;78.03;101106.16;5008592;28;20037;-76
2022/04/15 05:09:28;;;;;;;19.77;8.35;;;;;;;7.39;78.36;101043.91;4992079;28;20041;-75
2022/04/15 05:11:55;;;;;;;12.35;8.00;;;;;;;7.71;79.15;101101.44;5008343;28;20026;-75
2022/04/15 05:14:20;;;;;;;16.77;7.93;;;;;;;7.56;80.37;101044.91;5025357;28;20098;-76
2022/04/15 05:16:47;;;;;;;15.98;8.75;;;;;;;7.81;82.29;101078.03;5030474;28;20029;-75
2022/04/15 05:19:13;;;;;;;18.92;9.15;;;;;;;7.82;82.09;101084.09;5030742;28;20026;-75
2022/04/15 05:21:39;;;;;;;19.88;9.52;;;;;;;7.86;81.47;101062.91;5044650;28;20033;-77
2022/04/15 05:24:08;;;;;;;15.02;9.93;;;;;;;8.09;81.14;101095.94;5030225;28;20029;-75
2022/04/15 05:26:38;;;;;;;21.17;10.48;;;;;;;7.99;81.62;101101.38;5029864;28;20033;-76
2022/04/15 05:29:04;;;;;;;;;;;;;;;8.11;81.05;101106.31;5030801;28;20049;-75
2022/04/15 05:31:29;;;;;;;14.77;11.10;;;;;;;7.97;78.61;101086.66;5029202;28;20380;-75
2022/04/15 05:33:55;;;;;;;17.73;12.50;;;;;;;8.00;78.63;101115.09;5029623;28;20025;-75
2022/04/15 05:36:20;;;;;;;21.30;12.95;;;;;;;8.00;78.49;101110.88;5030591;28;20029;-78
2022/04/15 05:38:46;;;;;;;19.35;12.80;;;;;;;8.15;77.31;101118.56;5030340;28;20037;-76
2022/04/15 05:41:11;;;;;;;15.73;12.48;;;;;;;8.32;76.48;101110.91;5030480;28;20177;-75
2022/04/15 05:43:37;;;;;;;18.23;12.27;;;;;;;8.31;75.84;101106.56;5030100;28;20435;-76
2022/04/15 05:46:03;;;;;;;18.20;11.52;;;;;;;8.49;75.75;101111.91;5011505;28;20045;-76
2022/04/15 05:48:28;;;;;;;16.17;11.40;;;;;;;8.74;75.69;101127.00;5029546;28;20381;-75
2022/04/15 05:50:54;;;;;;;18.30;12.65;;;;;;;8.87;76.57;101120.84;5030077;28;20033;-78
2022/04/15 05:53:19;;;;;;;14.68;12.65;;;;;;;8.93;76.33;101108.28;5030098;28;20033;-75
2022/04/15 05:55:45;;;;;;;15.10;11.90;;;;;;;8.98;76.29;101101.69;5030253;28;20466;-75
2022/04/15 05:58:10;;;;;;;18.98;13.05;;;;;;;9.05;79.45;101105.50;5028827;28;20522;-78
2022/04/15 06:00:37;;;;;;;14.43;12.43;;;;;;;9.27;78.50;101119.50;5007579;28;20038;-76
2022/04/15 06:03:02;;;;;;;16.77;13.02;;;;;;;9.27;79.88;101083.44;5009531;28;20432;-76
2022/04/15 06:05:28;;;;;;;17.23;11.93;;;;;;;9.63;78.92;101102.50;5011890;28;20042;-76
2022/04/15 06:07:53;;;;;;;19.92;12.73;;;;;;;9.78;77.55;101086.94;4995299;28;20576;-76
2022/04/15 06:10:19;;;;;;;14.00;12.20;;;;;;;9.84;76.35;101074.34;4999686;28;20076;-75
2022/04/15 06:15:30;;;;;;;14.52;11.48;;;;;;;10.24;76.70;101100.31;5019681;28;20053;-75
2022/04/15 06:17:55;;;;;;;16.23;12.07;;;;;;;10.35;77.76;101100.03;5011583;28;20065;-76
2022/04/15 06:20:21;;;;;;;15.85;11.95;;;;;;;10.52;77.70;101097.38;5011281;28;20566;-73
2022/04/15 06:22:46;;;;;;;14.40;11.05;;;;;;;10.50;74.75;101099.91;5011616;28;20472;-75
2022/04/15 06:25:12;;;;;;;19.63;11.30;;;;;;;10.56;74.20;101094.13;5011237;28;20121;-77
2022/04/15 06:27:37;;;;;;;12.07;9.68;;;;;;;10.50;73.05;101068.94;5011609;28;20097;-75
2022/04/15 06:30:04;;;;;;;16.95;9.23;;;;;;;10.55;72.01;101058.78;5011123;28;20077;-75
2022/04/15 06:32:29;;;;;;;17.60;9.23;;;;;;;10.85;70.53;101086.84;5030480;28;20049;-79
2022/04/15 06:34:55;;;;;;;14.00;9.52;;;;;;;10.98;70.61;101085.72;5033555;28;20029;-76
2022/04/15 06:37:20;;;;;;;13.13;8.73;;;;;;;11.25;71.25;101093.81;5033679;28;20516;-76
2022/04/15 06:39:50;;;;;;;11.57;8.15;;;;;;;11.30;71.77;101081.97;5033297;28;20026;-75
2022/04/15 06:42:26;;;;;;;12.57;7.95;;;;;;;11.47;67.99;101090.44;5033207;28;20072;-75
2022/04/15 06:44:52;;;;;;;12.55;7.72;;;;;;;11.48;68.59;101079.28;5033352;28;20525;-75
2022/04/15 06:47:17;;;;;;;10.43;7.93;;;;;;;11.48;67.22;101044.81;5033568;28;20030;-76
2022/04/15 06:49:43;;;;;;;10.00;7.25;;;;;;;11.91;66.53;101082.81;5033071;28;20065;-74
2022/04/15 06:52:09;;;;;;;10.32;7.28;;;;;;;12.15;64.91;101084.69;5033063;28;20469;-76
2022/04/15 06:54:35;;;;;;;11.73;7.20;;;;;;;12.31;64.33;101083.56;5032945;28;20432;-75
2022/04/15 06:57:01;;;;;;;12.32;7.25;;;;;;;12.49;64.37;101083.41;5033227;28;20050;-75
2022/04/15 06:59:26;;;;;;;12.00;7.13;;;;;;;12.57;64.64;101082.03;5032600;28;20827;-76
2022/04/15 07:01:52;;;;;;;9.35;6.70;;;;;;;12.76;64.61;101090.47;5033048;28;20389;-75
2022/04/15 07:04:17;;;;;;;13.93;8.18;;;;;;;12.70;62.87;101049.69;5033235;28;20034;-75
2022/04/15 07:06:43;;;;;;;9.95;7.13;;;;;;;12.97;63.16;101097.28;5033123;28;20484;-76
2022/04/15 07:09:09;;;;;;;10.15;7.43;;;;;;;13.14;62.28;101087.56;5032892;28;20032;-76
2022/04/15 07:11:34;;;;;;;11.55;7.53;;;;;;;13.10;63.47;101076.19;5032636;28;20518;-76
2022/04/15 07:14:00;;;;;;;15.30;7.80;;;;;;;13.26;61.69;101077.63;5031261;28;20496;-75
2022/04/15 07:16:25;;;;;;;13.18;7.18;;;;;;;13.30;61.74;101083.81;5032615;28;20108;-76
2022/04/15 07:18:52;;;;;;;11.63;7.25;;;;;;;13.40;62.75;101084.19;5032857;28;20472;-76
2022/04/15 07:21:18;;;;;;;11.73;6.93;;;;;;;13.56;60.34;101075.25;5031460;28;20022;-76
2022/04/15 07:23:44;;;;;;;16.90;11.30;;;;;;;13.57;60.04;101063.16;5032755;28;20044;-79
2022/04/15 07:26:10;;;;;;;9.48;6.80;;;;;;;13.37;59.17;101042.63;5031157;28;20104;-76
2022/04/15 07:28:35;;;;;;;10.30;6.47;;;;;;;13.79;58.81;101076.88;5032103;28;20068;-75
2022/04/15 07:31:01;;;;;;;11.70;6.95;;;;;;;13.87;58.31;101076.28;5031373;28;20546;-75
2022/04/15 07:33:27;;;;;;;8.90;5.97;;;;;;;13.65;58.83;101024.53;5032582;28;20465;-77
2022/04/15 07:35:52;;;;;;;9.05;6.07;;;;;;;13.88;60.80;101074.56;5032518;28;20021;-75
2022/04/15 07:38:18;;;;;;;9.88;6.40;;;;;;;14.15;58.43;101068.53;5014785;28;20052;-75
2022/04/15 07:40:43;;;;;;;8.98;6.18;;;;;;;14.25;57.49;101052.38;5032382;28;20404;-75
2022/04/15 07:43:09;;;;;;;9.60;5.30;;;;;;;14.47;56.82;101071.25;5031996;28;20416;-75
2022/04/15 07:45:34;;;;;;;10.82;5.70;;;;;;;14.63;55.28;101049.19;5032148;28;20105;-73
2022/04/15 07:48:00;;;;;;;8.90;5.38;;;;;;;14.77;55.02;101065.25;5030813;28;20416;-75
2022/04/15 07:50:26;;;;;;;8.27;5.15;;;;;;;14.82;54.68;101042.88;5032127;28;20108;-75
2022/04/15 07:52:56;;;;;;;8.70;5.20;;;;;;;14.96;53.03;101049.31;5032157;28;20029;-75
2022/04/15 07:55:22;;;;;;;7.75;4.70;;;;;;;15.08;52.66;101032.28;5031834;28;20044;-76
2022/04/15 07:57:48;;;;;;;7.38;4.78;;;;;;;15.37;52.27;101049.56;5031894;28;20045;-74
2022/04/15 08:00:14;;;;;;;11.23;5.22;;;;;;;15.59;51.79;101039.75;5031771;28;20496;-75
2022/04/15 08:02:40;;;;;;;7.07;4.25;;;;;;;15.53;52.17;101036.97;5032052;28;20036;-75
2022/04/15 08:05:06;;;;;;;9.60;4.85;;;;;;;15.59;51.18;101037.13;5031933;28;20025;-77
2022/04/15 08:07:31;;;;;;;10.40;4.80;;;;;;;15.73;50.52;101044.41;5032276;28;20475;-75
2022/04/15 08:09:57;;;;;;;8.20;4.15;;;;;;;15.69;51.51;101027.84;5031602;28;20025;-76
2022/04/15 08:12:22;;;;;;;6.68;4.00;;;;;;;15.79;52.14;101029.81;5031538;28;20025;-76
2022/04/15 08:14:48;;;;;;;7.20;4.25;;;;;;;15.85;52.03;101013.50;5031733;28;20045;-77
2022/04/15 08:17:13;;;;;;;7.28;4.53;;;;;;;15.96;53.08;101004.22;5031537;28;20033;-76
2022/04/15 08:19:39;;;;;;;7.22;4.10;;;;;;;16.17;50.77;101019.47;5031375;28;20029;-75
2022/04/15 08:22:09;;;;;;;7.82;4.50;;;;;;;16.33;49.19;101005.03;5031359;28;20026;-78
2022/04/15 08:24:42;;;;;;;9.63;4.00;;;;;;;16.65;49.08;101012.66;5031441;28;20030;-76
2022/04/15 08:27:11;;;;;;;8.60;4.28;;;;;;;16.69;48.07;101003.19;5031871;28;20040;-77
2022/04/15 08:29:38;;;;;;;7.22;4.30;;;;;;;16.72;51.45;101010.19;5031287;28;20033;-77
2022/04/15 08:32:07;;;;;;;6.07;4.07;;;;;;;16.85;51.38;100995.66;5013412;28;20048;-77
2022/04/15 08:34:34;;;;;;;5.75;3.67;;;;;;;16.85;49.99;100986.13;5031116;28;20495;-79
2022/04/15 08:36:59;;;;;;;7.45;4.22;;;;;;;16.90;50.72;100963.63;5031125;28;20037;-75
2022/04/15 08:39:24;;;;;;;7.63;3.65;;;;;;;17.06;48.88;100971.75;5030839;28;20033;-77
2022/04/15 08:41:51;;;;;;;9.95;3.92;;;;;;;17.19;44.98;100955.47;5030027;28;20413;-79
2022/04/15 08:44:18;;;;;;;5.85;3.47;;;;;;;17.39;44.77;100975.81;5013222;28;20028;-79
2022/04/15 08:46:45;;;;;;;7.65;3.40;;;;;;;17.53;43.42;100982.13;5029744;28;20032;-82
2022/04/15 08:49:11;;;;;;;9.10;3.95;;;;;;;17.43;43.03;100980.22;5013415;28;20044;-79
2022/04/15 08:51:37;;;;;;;8.32;3.65;;;;;;;17.49;42.73;100974.25;5046196;28;20029;-81
2022/04/15 08:54:06;;;;;;;7.65;3.65;;;;;;;17.61;42.66;100967.50;5012959;28;20163;-81
2022/04/15 08:56:32;;;;;;;4.95;3.22;;;;;;;17.65;42.62;100968.41;5008411;28;20048;-77
2022/04/15 08:58:57;;;;;;;6.03;3.00;;;;;;;17.72;44.07;100966.75;4992175;28;20033;-79
2022/04/15 09:01:23;;;;;;;6.93;3.40;;;;;;;17.85;42.34;100965.25;4992189;28;20066;-78
2022/04/15 09:03:49;;;;;;;7.53;3.75;;;;;;;17.87;41.95;100943.50;5008635;28;20064;-79
2022/04/15 09:06:17;;;;;;;5.20;3.05;;;;;;;18.16;41.10;100950.91;4991757;28;20528;-79
2022/04/15 09:09:18;;;;;;;5.00;2.90;;;;;;;18.25;38.74;100952.75;4988695;28;20034;-79
2022/04/15 09:11:48;;;;;;;5.63;3.30;;;;;;;18.42;38.07;100950.38;4912033;29;20135;-79
2022/04/15 09:14:15;;;;;;;5.82;2.90;;;;;;;18.54;39.18;100929.59;4911909;29;20036;-76
2022/04/15 09:16:40;;;;;;;4.53;2.50;;;;;;;18.69;41.56;100938.47;4911488;29;20401;-76
2022/04/15 09:19:07;;;;;;;5.10;3.05;;;;;;;18.80;37.56;100897.59;4911778;29;20103;-76
2022/04/15 09:21:33;;;;;;;10.70;3.40;;;;;;;19.07;38.34;100910.09;4912096;29;20083;-79
2022/04/15 09:23:59;;;;;;;4.68;2.80;;;;;;;19.26;38.16;100930.34;4912085;29;20161;-76
2022/04/15 09:26:25;;;;;;;6.07;3.10;;;;;;;19.26;39.86;100906.78;4911213;29;20048;-76
2022/04/15 09:28:53;;;;;;;9.05;2.97;;;;;;;19.40;38.68;100920.84;4893032;29;20442;-77
2022/04/15 09:31:21;;;;;;;5.18;2.78;;;;;;;19.42;35.98;100911.28;4892378;29;20040;-76
2022/04/15 09:33:57;;;;;;;4.97;2.42;;;;;;;19.53;37.60;100920.06;4892429;29;20041;-75
2022/04/15 09:36:32;;;;;;;5.35;2.63;;;;;;;19.54;36.97;100907.88;4892820;29;20044;-80
2022/04/15 09:39:10;;;;;;;7.07;2.65;;;;;;;19.59;37.21;100884.31;4918355;29;20042;-78
2022/04/15 09:41:37;;;;;;;4.30;2.50;;;;;;;19.95;35.61;100899.41;4965884;28;20487;-77
2022/04/15 09:44:03;;;;;;;5.40;2.55;;;;;;;20.03;35.48;100904.69;4933378;29;20478;-80
2022/04/15 09:46:30;;;;;;;4.28;2.58;;;;;;;19.71;36.00;100856.47;4981871;28;20165;-77
2022/04/15 09:49:06;;;;;;;5.18;2.63;;;;;;;19.90;35.26;100902.88;4992970;28;20111;-77
2022/04/15 09:51:46;;;;;;;5.40;2.80;;;;;;;19.98;36.09;100886.31;5009366;28;20168;-77
2022/04/15 09:54:28;;;;;;;7.20;3.10;;;;;;;20.23;34.71;100891.66;4992686;28;20444;-77
2022/04/15 09:56:58;;;;;;;5.07;2.90;;;;;;;20.06;34.94;100841.78;4989325;28;20073;-78
2022/04/15 09:59:26;;;;;;;5.20;2.88;;;;;;;20.42;36.41;100876.00;4990782;28;20460;-78
2022/04/15 10:01:56;;;;;;;4.30;2.55;;;;;;;20.70;37.31;100882.19;4989650;28;20096;-79
2022/04/15 10:04:26;;;;;;;5.68;3.00;;;;;;;20.67;35.48;100872.56;4990841;28;20429;-78
2022/04/15 10:06:52;;;;;;;4.55;2.72;;;;;;;20.74;34.89;100868.22;4989107;28;20033;-79
2022/04/15 10:09:19;;;;;;;4.03;2.55;;;;;;;20.41;35.66;100859.41;4992786;28;20045;-80
2022/04/15 10:11:46;;;;;;;5.30;2.53;;;;;;;20.60;35.46;100860.31;5009088;28;20037;-82
2022/04/15 10:14:14;;;;;;;5.13;2.70;;;;;;;20.81;33.89;100854.25;5010839;28;20032;-80
2022/04/15 10:16:42;;;;;;;4.40;2.50;;;;;;;20.90;33.42;100855.09;5009393;28;20030;-81
2022/04/15 10:19:09;;;;;;;7.22;2.83;;;;;;;20.53;34.96;100843.66;5025465;28;20489;-82
2022/04/15 10:21:39;;;;;;;4.88;2.58;;;;;;;20.69;33.85;100844.56;5010325;28;20409;-81
2022/04/15 10:24:07;;;;;;;;;;;;;;;20.87;36.33;100852.50;5011157;28;20030;-82
2022/04/15 10:26:40;;;;;;;7.32;2.53;;;;;;;21.09;34.15;100848.13;5009210;28;19980;-80
2022/04/15 10:29:06;;;;;;;3.85;2.70;;;;;;;21.10;33.90;100840.25;5009350;28;20418;-81
2022/04/15 10:31:49;;;;;;;4.05;2.53;;;;;;;20.96;34.01;100819.25;5021659;28;20041;-83
2022/04/15 10:34:20;;;;;;;5.03;2.80;;;;;;;21.35;33.28;100821.84;5030088;28;20028;-80
2022/04/15 10:36:46;;;;;;;9.23;2.70;;;;;;;21.60;34.25;100820.06;5029877;28;20510;-80
2022/04/15 10:39:14;;;;;;;4.97;2.80;;;;;;;21.56;34.62;100807.81;5030029;28;20033;-81
2022/04/15 10:41:43;;;;;;;4.28;2.60;;;;;;;21.69;35.14;100820.91;5028765;28;20034;-82
2022/04/15 10:44:13;;;;;;;5.70;2.53;;;;;;;21.80;32.24;100804.22;5029914;28;20030;-76
2022/04/15 10:46:38;;;;;;;6.32;2.45;;;;;;;21.79;32.28;100783.19;5030039;28;20033;-79
2022/04/15 10:49:23;;;;;;;5.80;2.72;;;;;;;22.17;32.58;100807.53;5030319;28;20041;-76
2022/04/15 10:51:54;;;;;;;8.52;3.35;;;;;;;22.30;32.38;100796.06;5033341;28;20033;-79
2022/04/15 10:54:35;;;;;;;5.75;2.50;;;;;;;22.57;33.22;100805.56;5015806;28;20401;-77
2022/04/15 10:57:09;;;;;;;5.18;3.10;;;;;;;22.72;33.17;100804.56;5021473;28;20053;-80
2022/04/15 11:02:24;;;;;;;5.95;2.78;;;;;;;22.65;32.88;100791.47;5033279;28;20091;-79
2022/04/15 11:04:51;;;;;;;5.07;2.50;;;;;;;22.55;32.80;100767.00;5015387;28;20053;-78
2022/04/15 11:07:40;;;;;;;4.05;2.42;;;;;;;22.78;31.71;100794.00;5033022;28;20500;-80
2022/04/15 11:10:16;;;;;;;5.03;2.35;;;;;;;22.80;30.12;100788.72;5032946;28;20152;-81
2022/04/15 11:12:45;;;;;;;5.20;2.20;;;;;;;22.74;30.37;100786.13;5033130;28;20040;-80
2022/04/15 11:15:12;;;;;;;6.32;2.40;;;;;;;22.65;30.94;100744.97;5033730;28;20033;-78
2022/04/15 11:17:39;;;;;;;3.13;2.10;;;;;;;23.00;30.03;100775.34;5052657;28;20104;-79
2022/04/15 11:20:08;;;;;;;4.32;2.45;;;;;;;23.08;31.47;100776.16;5053121;28;20060;-82
2022/04/15 11:22:41;;;;;;;5.97;2.30;;;;;;;23.10;30.73;100778.78;5034986;28;20029;-79
2022/04/15 11:25:09;;;;;;;3.72;2.30;;;;;;;23.06;29.72;100772.66;5034680;28;20478;-80
2022/04/15 11:27:38;;;;;;;5.93;2.65;;;;;;;22.96;30.71;100771.03;5034722;28;20565;-81
2022/04/15 11:30:14;;;;;;;5.95;2.55;;;;;;;23.02;32.02;100752.53;5052027;28;20083;-79